sensor_id;sensor_type;location;lat;lon;timestamp;P1;durP1;ratioP1;P2;durP2;ratioP2
76204;SDS011;64986;55.672;37.628;2022-11-20T00:00:39;1.67;;;1.25;;
76204;SDS011;64986;55.672;37.628;2022-11-20T00:03:05;1.70;;;1.20;;
76204;SDS011;64986;55.672;37.628;2022-11-20T00:05:32;2.35;;;1.27;;
76204;SDS011;64986;55.672;37.628;2022-11-20T00:07:57;1.40;;;1.25;;
76204;SDS011;64986;55.672;37.628;2022-11-20T00:10:23;1.50;;;1.15;;
76204;SDS011;64986;55.672;37.628;2022-11-20T00:12:48;2.72;;;1.25;;
76204;SDS011;64986;55.672;37.628;2022-11-20T00:15:14;1.88;;;1.38;;
76204;SDS011;64986;55.672;37.628;2022-11-20T00:17:39;1.52;;;1.20;;
76204;SDS011;64986;55.672;37.628;2022-11-20T00:20:05;1.50;;;1.08;;
76204;SDS011;64986;55.672;37.628;2022-11-20T00:22:31;1.92;;;1.25;;
76204;SDS011;64986;55.672;37.628;2022-11-20T00:24:56;2.17;;;1.40;;
76204;SDS011;64986;55.672;37.628;2022-11-20T00:27:22;2.10;;;1.30;;
76204;SDS011;64986;55.672;37.628;2022-11-20T00:29:48;2.65;;;1.25;;
76204;SDS011;64986;55.672;37.628;2022-11-20T00:32:14;2.15;;;1.77;;
76204;SDS011;64986;55.672;37.628;2022-11-20T00:34:39;1.73;;;1.20;;
76204;SDS011;64986;55.672;37.628;2022-11-20T00:37:05;2.13;;;1.50;;
76204;SDS011;64986;55.672;37.628;2022-11-20T00:39:30;2.03;;;1.23;;
76204;SDS011;64986;55.672;37.628;2022-11-20T00:41:55;1.83;;;1.33;;
76204;SDS011;64986;55.672;37.628;2022-11-20T00:44:21;1.83;;;1.30;;
76204;SDS011;64986;55.672;37.628;2022-11-20T00:46:46;2.40;;;1.55;;
76204;SDS011;64986;55.672;37.628;2022-11-20T00:49:12;2.80;;;1.52;;
76204;SDS011;64986;55.672;37.628;2022-11-20T00:51:37;2.78;;;1.40;;
76204;SDS011;64986;55.672;37.628;2022-11-20T00:54:03;2.75;;;1.60;;
76204;SDS011;64986;55.672;37.628;2022-11-20T00:56:28;2.00;;;1.17;;
76204;SDS011;64986;55.672;37.628;2022-11-20T00:58:54;1.98;;;1.55;;
76204;SDS011;64986;55.672;37.628;2022-11-20T01:01:21;2.00;;;1.60;;
76204;SDS011;64986;55.672;37.628;2022-11-20T01:03:50;2.85;;;1.52;;
76204;SDS011;64986;55.672;37.628;2022-11-20T01:06:17;1.80;;;1.40;;
76204;SDS011;64986;55.672;37.628;2022-11-20T01:08:43;2.80;;;1.80;;
76204;SDS011;64986;55.672;37.628;2022-11-20T01:11:11;2.28;;;1.20;;
76204;SDS011;64986;55.672;37.628;2022-11-20T01:13:41;3.03;;;1.98;;
76204;SDS011;64986;55.672;37.628;2022-11-20T01:16:14;2.47;;;1.70;;
76204;SDS011;64986;55.672;37.628;2022-11-20T01:18:43;2.10;;;1.88;;
76204;SDS011;64986;55.672;37.628;2022-11-20T01:21:11;1.73;;;1.30;;
76204;SDS011;64986;55.672;37.628;2022-11-20T01:23:42;1.90;;;1.30;;
76204;SDS011;64986;55.672;37.628;2022-11-20T01:26:09;2.75;;;1.80;;
76204;SDS011;64986;55.672;37.628;2022-11-20T01:28:36;2.67;;;1.95;;
76204;SDS011;64986;55.672;37.628;2022-11-20T01:31:10;1.85;;;1.23;;
76204;SDS011;64986;55.672;37.628;2022-11-20T01:33:38;2.63;;;1.75;;
76204;SDS011;64986;55.672;37.628;2022-11-20T01:36:05;2.50;;;1.60;;
76204;SDS011;64986;55.672;37.628;2022-11-20T01:38:31;2.15;;;1.67;;
76204;SDS011;64986;55.672;37.628;2022-11-20T01:40:57;2.80;;;1.40;;
76204;SDS011;64986;55.672;37.628;2022-11-20T01:43:23;2.10;;;1.40;;
76204;SDS011;64986;55.672;37.628;2022-11-20T01:48:18;1.77;;;1.50;;
76204;SDS011;64986;55.672;37.628;2022-11-20T01:50:46;2.13;;;1.60;;
76204;SDS011;64986;55.672;37.628;2022-11-20T01:53:13;2.40;;;1.63;;
76204;SDS011;64986;55.672;37.628;2022-11-20T01:55:49;1.95;;;1.30;;
76204;SDS011;64986;55.672;37.628;2022-11-20T01:58:19;2.70;;;1.33;;
76204;SDS011;64986;55.672;37.628;2022-11-20T02:00:48;2.20;;;1.58;;
76204;SDS011;64986;55.672;37.628;2022-11-20T02:03:15;1.92;;;1.40;;
76204;SDS011;64986;55.672;37.628;2022-11-20T02:08:26;2.47;;;1.30;;
76204;SDS011;64986;55.672;37.628;2022-11-20T02:10:53;2.47;;;1.65;;
76204;SDS011;64986;55.672;37.628;2022-11-20T02:13:18;2.35;;;1.60;;
76204;SDS011;64986;55.672;37.628;2022-11-20T02:16:08;2.53;;;1.88;;
76204;SDS011;64986;55.672;37.628;2022-11-20T02:18:48;3.45;;;1.80;;
76204;SDS011;64986;55.672;37.628;2022-11-20T02:24:18;2.05;;;1.38;;
76204;SDS011;64986;55.672;37.628;2022-11-20T02:29:53;1.85;;;1.45;;
76204;SDS011;64986;55.672;37.628;2022-11-20T02:32:22;2.07;;;1.53;;
76204;SDS011;64986;55.672;37.628;2022-11-20T02:34:50;2.10;;;1.35;;
76204;SDS011;64986;55.672;37.628;2022-11-20T02:37:16;1.35;;;1.02;;
76204;SDS011;64986;55.672;37.628;2022-11-20T02:39:42;2.45;;;1.30;;
76204;SDS011;64986;55.672;37.628;2022-11-20T02:42:11;2.42;;;1.38;;
76204;SDS011;64986;55.672;37.628;2022-11-20T02:44:36;2.40;;;1.63;;
76204;SDS011;64986;55.672;37.628;2022-11-20T02:47:02;1.92;;;1.73;;
76204;SDS011;64986;55.672;37.628;2022-11-20T02:49:28;2.03;;;1.35;;
76204;SDS011;64986;55.672;37.628;2022-11-20T02:51:53;1.73;;;1.23;;
76204;SDS011;64986;55.672;37.628;2022-11-20T02:54:19;1.40;;;1.02;;
76204;SDS011;64986;55.672;37.628;2022-11-20T02:56:44;1.55;;;1.20;;
76204;SDS011;64986;55.672;37.628;2022-11-20T02:59:10;2.35;;;1.50;;
76204;SDS011;64986;55.672;37.628;2022-11-20T03:01:35;2.38;;;1.27;;
76204;SDS011;64986;55.672;37.628;2022-11-20T03:04:01;1.65;;;1.30;;
76204;SDS011;64986;55.672;37.628;2022-11-20T03:06:26;2.60;;;1.52;;
76204;SDS011;64986;55.672;37.628;2022-11-20T03:08:52;2.17;;;1.33;;
76204;SDS011;64986;55.672;37.628;2022-11-20T03:11:17;2.35;;;1.50;;
76204;SDS011;64986;55.672;37.628;2022-11-20T03:13:43;2.03;;;1.40;;
76204;SDS011;64986;55.672;37.628;2022-11-20T03:16:12;2.00;;;1.35;;
76204;SDS011;64986;55.672;37.628;2022-11-20T03:18:40;3.70;;;2.65;;
76204;SDS011;64986;55.672;37.628;2022-11-20T03:21:06;2.60;;;1.48;;
76204;SDS011;64986;55.672;37.628;2022-11-20T03:23:32;2.63;;;1.55;;
76204;SDS011;64986;55.672;37.628;2022-11-20T03:28:51;2.47;;;1.25;;
76204;SDS011;64986;55.672;37.628;2022-11-20T03:31:19;1.58;;;1.23;;
76204;SDS011;64986;55.672;37.628;2022-11-20T03:33:46;2.45;;;1.42;;
76204;SDS011;64986;55.672;37.628;2022-11-20T03:36:13;1.65;;;1.30;;
76204;SDS011;64986;55.672;37.628;2022-11-20T03:38:40;1.90;;;1.30;;
76204;SDS011;64986;55.672;37.628;2022-11-20T03:41:09;2.00;;;1.45;;
76204;SDS011;64986;55.672;37.628;2022-11-20T03:43:36;2.70;;;1.75;;
76204;SDS011;64986;55.672;37.628;2022-11-20T03:46:02;2.20;;;1.52;;
76204;SDS011;64986;55.672;37.628;2022-11-20T03:48:29;2.10;;;1.45;;
76204;SDS011;64986;55.672;37.628;2022-11-20T03:56:07;2.88;;;1.55;;
76204;SDS011;64986;55.672;37.628;2022-11-20T03:58:34;2.55;;;1.48;;
76204;SDS011;64986;55.672;37.628;2022-11-20T04:03:39;1.77;;;1.17;;
76204;SDS011;64986;55.672;37.628;2022-11-20T04:06:10;2.00;;;1.30;;
76204;SDS011;64986;55.672;37.628;2022-11-20T04:08:39;1.25;;;1.15;;
76204;SDS011;64986;55.672;37.628;2022-11-20T04:13:38;1.92;;;1.40;;
76204;SDS011;64986;55.672;37.628;2022-11-20T04:16:05;1.98;;;1.23;;
76204;SDS011;64986;55.672;37.628;2022-11-20T04:18:31;1.92;;;1.23;;
76204;SDS011;64986;55.672;37.628;2022-11-20T04:20:57;1.55;;;1.27;;
76204;SDS011;64986;55.672;37.628;2022-11-20T04:23:24;3.00;;;1.50;;
76204;SDS011;64986;55.672;37.628;2022-11-20T04:25:50;1.60;;;1.20;;
76204;SDS011;64986;55.672;37.628;2022-11-20T04:28:15;2.60;;;1.40;;
76204;SDS011;64986;55.672;37.628;2022-11-20T04:30:41;2.78;;;1.88;;
76204;SDS011;64986;55.672;37.628;2022-11-20T04:33:06;1.88;;;1.50;;
76204;SDS011;64986;55.672;37.628;2022-11-20T04:35:35;2.08;;;1.52;;
76204;SDS011;64986;55.672;37.628;2022-11-20T04:38:02;2.45;;;1.50;;
76204;SDS011;64986;55.672;37.628;2022-11-20T04:40:28;3.75;;;1.50;;
76204;SDS011;64986;55.672;37.628;2022-11-20T04:42:54;2.60;;;1.40;;
76204;SDS011;64986;55.672;37.628;2022-11-20T04:45:20;2.03;;;1.40;;
76204;SDS011;64986;55.672;37.628;2022-11-20T04:47:46;1.67;;;1.30;;
76204;SDS011;64986;55.672;37.628;2022-11-20T04:50:11;2.15;;;1.40;;
76204;SDS011;64986;55.672;37.628;2022-11-20T04:52:37;2.50;;;1.58;;
76204;SDS011;64986;55.672;37.628;2022-11-20T04:55:02;2.88;;;1.83;;
76204;SDS011;64986;55.672;37.628;2022-11-20T04:57:28;1.50;;;1.10;;
76204;SDS011;64986;55.672;37.628;2022-11-20T04:59:54;1.83;;;1.42;;
76204;SDS011;64986;55.672;37.628;2022-11-20T05:02:19;3.78;;;1.88;;
76204;SDS011;64986;55.672;37.628;2022-11-20T05:04:45;3.50;;;2.10;;
76204;SDS011;64986;55.672;37.628;2022-11-20T05:07:10;2.88;;;1.30;;
76204;SDS011;64986;55.672;37.628;2022-11-20T05:09:36;2.80;;;1.65;;
76204;SDS011;64986;55.672;37.628;2022-11-20T05:12:01;3.05;;;1.83;;
76204;SDS011;64986;55.672;37.628;2022-11-20T05:14:27;3.03;;;1.40;;
76204;SDS011;64986;55.672;37.628;2022-11-20T05:16:52;2.05;;;1.35;;
76204;SDS011;64986;55.672;37.628;2022-11-20T05:19:18;3.42;;;1.83;;
76204;SDS011;64986;55.672;37.628;2022-11-20T05:21:43;2.78;;;1.40;;
76204;SDS011;64986;55.672;37.628;2022-11-20T05:24:09;3.42;;;1.55;;
76204;SDS011;64986;55.672;37.628;2022-11-20T05:26:34;3.20;;;2.30;;
76204;SDS011;64986;55.672;37.628;2022-11-20T05:29:00;1.95;;;1.50;;
76204;SDS011;64986;55.672;37.628;2022-11-20T05:31:26;2.33;;;1.40;;
76204;SDS011;64986;55.672;37.628;2022-11-20T05:33:51;2.53;;;1.70;;
76204;SDS011;64986;55.672;37.628;2022-11-20T05:36:16;3.67;;;1.42;;
76204;SDS011;64986;55.672;37.628;2022-11-20T05:38:43;2.20;;;1.55;;
76204;SDS011;64986;55.672;37.628;2022-11-20T05:43:40;3.00;;;1.88;;
76204;SDS011;64986;55.672;37.628;2022-11-20T05:46:08;2.45;;;1.60;;
76204;SDS011;64986;55.672;37.628;2022-11-20T05:48:35;2.53;;;1.70;;
76204;SDS011;64986;55.672;37.628;2022-11-20T05:51:03;1.95;;;1.60;;
76204;SDS011;64986;55.672;37.628;2022-11-20T05:53:29;2.25;;;1.48;;
76204;SDS011;64986;55.672;37.628;2022-11-20T05:55:59;2.15;;;1.67;;
76204;SDS011;64986;55.672;37.628;2022-11-20T05:58:36;2.33;;;1.73;;
76204;SDS011;64986;55.672;37.628;2022-11-20T06:01:14;2.58;;;1.70;;
76204;SDS011;64986;55.672;37.628;2022-11-20T06:03:44;3.17;;;1.40;;
76204;SDS011;64986;55.672;37.628;2022-11-20T06:06:12;2.25;;;1.70;;
76204;SDS011;64986;55.672;37.628;2022-11-20T06:08:39;3.30;;;2.22;;
76204;SDS011;64986;55.672;37.628;2022-11-20T06:11:05;3.47;;;1.63;;
76204;SDS011;64986;55.672;37.628;2022-11-20T06:13:32;2.80;;;1.70;;
76204;SDS011;64986;55.672;37.628;2022-11-20T06:15:57;3.15;;;1.40;;
76204;SDS011;64986;55.672;37.628;2022-11-20T06:18:23;2.05;;;1.40;;
76204;SDS011;64986;55.672;37.628;2022-11-20T06:20:58;3.08;;;1.77;;
76204;SDS011;64986;55.672;37.628;2022-11-20T06:23:25;2.10;;;1.35;;
76204;SDS011;64986;55.672;37.628;2022-11-20T06:25:50;2.08;;;1.38;;
76204;SDS011;64986;55.672;37.628;2022-11-20T06:28:16;2.83;;;1.85;;
76204;SDS011;64986;55.672;37.628;2022-11-20T06:30:44;3.78;;;2.10;;
76204;SDS011;64986;55.672;37.628;2022-11-20T06:33:10;3.53;;;2.03;;
76204;SDS011;64986;55.672;37.628;2022-11-20T06:35:36;2.40;;;1.70;;
76204;SDS011;64986;55.672;37.628;2022-11-20T06:38:01;2.30;;;1.63;;
76204;SDS011;64986;55.672;37.628;2022-11-20T06:40:27;3.75;;;2.13;;
76204;SDS011;64986;55.672;37.628;2022-11-20T06:42:53;2.67;;;1.65;;
76204;SDS011;64986;55.672;37.628;2022-11-20T06:45:20;4.20;;;1.88;;
76204;SDS011;64986;55.672;37.628;2022-11-20T06:47:45;3.70;;;1.95;;
76204;SDS011;64986;55.672;37.628;2022-11-20T06:50:11;3.13;;;2.00;;
76204;SDS011;64986;55.672;37.628;2022-11-20T06:52:37;3.67;;;2.28;;
76204;SDS011;64986;55.672;37.628;2022-11-20T06:55:02;2.90;;;2.08;;
76204;SDS011;64986;55.672;37.628;2022-11-20T06:57:28;3.90;;;1.98;;
76204;SDS011;64986;55.672;37.628;2022-11-20T06:59:53;2.92;;;1.70;;
76204;SDS011;64986;55.672;37.628;2022-11-20T07:02:19;2.72;;;1.95;;
76204;SDS011;64986;55.672;37.628;2022-11-20T07:04:45;2.25;;;1.50;;
76204;SDS011;64986;55.672;37.628;2022-11-20T07:07:10;2.45;;;1.75;;
76204;SDS011;64986;55.672;37.628;2022-11-20T07:09:36;3.13;;;1.90;;
76204;SDS011;64986;55.672;37.628;2022-11-20T07:12:01;2.58;;;1.65;;
76204;SDS011;64986;55.672;37.628;2022-11-20T07:14:27;3.03;;;2.08;;
76204;SDS011;64986;55.672;37.628;2022-11-20T07:16:52;2.08;;;1.73;;
76204;SDS011;64986;55.672;37.628;2022-11-20T07:19:17;3.33;;;2.00;;
76204;SDS011;64986;55.672;37.628;2022-11-20T07:21:43;4.32;;;2.20;;
76204;SDS011;64986;55.672;37.628;2022-11-20T07:24:08;3.72;;;2.03;;
76204;SDS011;64986;55.672;37.628;2022-11-20T07:26:34;2.75;;;2.25;;
76204;SDS011;64986;55.672;37.628;2022-11-20T07:29:00;3.00;;;2.00;;
76204;SDS011;64986;55.672;37.628;2022-11-20T07:31:25;4.28;;;2.50;;
76204;SDS011;64986;55.672;37.628;2022-11-20T07:33:51;3.22;;;2.05;;
76204;SDS011;64986;55.672;37.628;2022-11-20T07:36:16;3.70;;;2.17;;
76204;SDS011;64986;55.672;37.628;2022-11-20T07:38:42;3.15;;;2.28;;
76204;SDS011;64986;55.672;37.628;2022-11-20T07:41:07;3.30;;;2.25;;
76204;SDS011;64986;55.672;37.628;2022-11-20T07:43:33;4.35;;;2.20;;
76204;SDS011;64986;55.672;37.628;2022-11-20T07:45:58;5.53;;;2.78;;
76204;SDS011;64986;55.672;37.628;2022-11-20T07:48:24;6.25;;;1.88;;
76204;SDS011;64986;55.672;37.628;2022-11-20T07:50:53;3.25;;;2.30;;
76204;SDS011;64986;55.672;37.628;2022-11-20T07:53:19;4.32;;;2.88;;
76204;SDS011;64986;55.672;37.628;2022-11-20T07:55:46;3.05;;;1.90;;
76204;SDS011;64986;55.672;37.628;2022-11-20T07:58:12;7.88;;;3.80;;
76204;SDS011;64986;55.672;37.628;2022-11-20T08:00:39;4.65;;;2.97;;
76204;SDS011;64986;55.672;37.628;2022-11-20T08:03:05;4.15;;;2.58;;
76204;SDS011;64986;55.672;37.628;2022-11-20T08:05:31;4.50;;;2.70;;
76204;SDS011;64986;55.672;37.628;2022-11-20T08:07:56;3.67;;;2.30;;
76204;SDS011;64986;55.672;37.628;2022-11-20T08:10:22;3.67;;;2.60;;
76204;SDS011;64986;55.672;37.628;2022-11-20T08:12:48;4.93;;;2.58;;
76204;SDS011;64986;55.672;37.628;2022-11-20T08:15:34;3.38;;;2.00;;
76204;SDS011;64986;55.672;37.628;2022-11-20T08:18:09;4.60;;;2.60;;
76204;SDS011;64986;55.672;37.628;2022-11-20T08:20:36;4.45;;;2.40;;
76204;SDS011;64986;55.672;37.628;2022-11-20T08:23:06;3.65;;;2.25;;
76204;SDS011;64986;55.672;37.628;2022-11-20T08:25:33;4.50;;;2.70;;
76204;SDS011;64986;55.672;37.628;2022-11-20T08:28:01;3.13;;;2.50;;
76204;SDS011;64986;55.672;37.628;2022-11-20T08:30:28;3.25;;;1.95;;
76204;SDS011;64986;55.672;37.628;2022-11-20T08:32:54;5.13;;;3.40;;
76204;SDS011;64986;55.672;37.628;2022-11-20T08:35:20;4.00;;;2.80;;
76204;SDS011;64986;55.672;37.628;2022-11-20T08:37:46;4.05;;;2.45;;
76204;SDS011;64986;55.672;37.628;2022-11-20T08:40:13;7.13;;;3.67;;
76204;SDS011;64986;55.672;37.628;2022-11-20T08:42:48;3.95;;;2.72;;
76204;SDS011;64986;55.672;37.628;2022-11-20T08:45:14;6.10;;;3.42;;
76204;SDS011;64986;55.672;37.628;2022-11-20T08:47:41;4.90;;;2.90;;
76204;SDS011;64986;55.672;37.628;2022-11-20T08:50:08;5.93;;;2.97;;
76204;SDS011;64986;55.672;37.628;2022-11-20T08:52:34;5.30;;;2.88;;
76204;SDS011;64986;55.672;37.628;2022-11-20T08:55:00;9.70;;;5.80;;
76204;SDS011;64986;55.672;37.628;2022-11-20T08:57:25;9.77;;;4.95;;
76204;SDS011;64986;55.672;37.628;2022-11-20T08:59:51;12.68;;;6.30;;
76204;SDS011;64986;55.672;37.628;2022-11-20T09:02:16;8.50;;;4.78;;
76204;SDS011;64986;55.672;37.628;2022-11-20T09:04:42;10.50;;;5.65;;
76204;SDS011;64986;55.672;37.628;2022-11-20T09:07:11;15.20;;;7.53;;
76204;SDS011;64986;55.672;37.628;2022-11-20T09:09:38;9.02;;;4.50;;
76204;SDS011;64986;55.672;37.628;2022-11-20T09:12:04;6.30;;;3.67;;
76204;SDS011;64986;55.672;37.628;2022-11-20T09:14:32;7.90;;;4.93;;
76204;SDS011;64986;55.672;37.628;2022-11-20T09:16:58;7.80;;;4.43;;
76204;SDS011;64986;55.672;37.628;2022-11-20T09:19:25;13.13;;;5.50;;
76204;SDS011;64986;55.672;37.628;2022-11-20T09:21:51;11.00;;;5.70;;
76204;SDS011;64986;55.672;37.628;2022-11-20T09:24:17;9.73;;;5.32;;
76204;SDS011;64986;55.672;37.628;2022-11-20T09:26:43;11.35;;;5.57;;
76204;SDS011;64986;55.672;37.628;2022-11-20T09:29:08;11.80;;;6.80;;
76204;SDS011;64986;55.672;37.628;2022-11-20T09:31:34;16.33;;;6.18;;
76204;SDS011;64986;55.672;37.628;2022-11-20T09:33:59;14.40;;;6.88;;
76204;SDS011;64986;55.672;37.628;2022-11-20T09:36:25;9.25;;;5.03;;
76204;SDS011;64986;55.672;37.628;2022-11-20T09:38:51;7.60;;;4.18;;
76204;SDS011;64986;55.672;37.628;2022-11-20T09:47:12;16.85;;;7.60;;
76204;SDS011;64986;55.672;37.628;2022-11-20T09:52:58;5.25;;;3.17;;
76204;SDS011;64986;55.672;37.628;2022-11-20T09:55:25;8.23;;;3.65;;
76204;SDS011;64986;55.672;37.628;2022-11-20T09:57:54;11.05;;;6.32;;
76204;SDS011;64986;55.672;37.628;2022-11-20T10:00:21;13.55;;;6.88;;
76204;SDS011;64986;55.672;37.628;2022-11-20T10:05:51;5.68;;;3.58;;
76204;SDS011;64986;55.672;37.628;2022-11-20T10:08:22;6.40;;;3.00;;
76204;SDS011;64986;55.672;37.628;2022-11-20T10:18:49;7.30;;;3.50;;
76204;SDS011;64986;55.672;37.628;2022-11-20T10:23:58;7.13;;;3.67;;
76204;SDS011;64986;55.672;37.628;2022-11-20T10:29:18;4.60;;;2.53;;
76204;SDS011;64986;55.672;37.628;2022-11-20T10:31:56;6.05;;;3.17;;
76204;SDS011;64986;55.672;37.628;2022-11-20T10:34:35;6.43;;;3.83;;
76204;SDS011;64986;55.672;37.628;2022-11-20T10:37:16;9.43;;;4.82;;
76204;SDS011;64986;55.672;37.628;2022-11-20T10:39:50;5.63;;;3.13;;
76204;SDS011;64986;55.672;37.628;2022-11-20T10:42:31;6.00;;;3.97;;
76204;SDS011;64986;55.672;37.628;2022-11-20T10:47:54;7.40;;;3.53;;
76204;SDS011;64986;55.672;37.628;2022-11-20T10:50:30;6.53;;;2.33;;
76204;SDS011;64986;55.672;37.628;2022-11-20T10:53:00;7.15;;;4.22;;
76204;SDS011;64986;55.672;37.628;2022-11-20T10:55:45;5.80;;;3.13;;
76204;SDS011;64986;55.672;37.628;2022-11-20T11:00:46;4.35;;;2.35;;
76204;SDS011;64986;55.672;37.628;2022-11-20T11:03:25;7.78;;;3.90;;
76204;SDS011;64986;55.672;37.628;2022-11-20T11:05:59;5.63;;;3.00;;
76204;SDS011;64986;55.672;37.628;2022-11-20T11:08:34;4.72;;;2.80;;
76204;SDS011;64986;55.672;37.628;2022-11-20T11:11:07;10.63;;;5.13;;
76204;SDS011;64986;55.672;37.628;2022-11-20T11:13:42;6.65;;;3.63;;
76204;SDS011;64986;55.672;37.628;2022-11-20T11:16:16;4.35;;;2.70;;
76204;SDS011;64986;55.672;37.628;2022-11-20T11:18:48;6.13;;;3.00;;
76204;SDS011;64986;55.672;37.628;2022-11-20T11:21:19;7.20;;;3.58;;
76204;SDS011;64986;55.672;37.628;2022-11-20T11:23:48;7.50;;;4.38;;
76204;SDS011;64986;55.672;37.628;2022-11-20T11:26:23;10.00;;;3.80;;
76204;SDS011;64986;55.672;37.628;2022-11-20T11:28:57;6.13;;;3.80;;
76204;SDS011;64986;55.672;37.628;2022-11-20T11:31:28;7.28;;;3.85;;
76204;SDS011;64986;55.672;37.628;2022-11-20T11:36:53;6.03;;;3.90;;
76204;SDS011;64986;55.672;37.628;2022-11-20T11:39:22;8.05;;;4.75;;
76204;SDS011;64986;55.672;37.628;2022-11-20T11:41:50;7.78;;;4.50;;
76204;SDS011;64986;55.672;37.628;2022-11-20T11:47:04;6.97;;;4.28;;
76204;SDS011;64986;55.672;37.628;2022-11-20T11:49:34;7.55;;;4.30;;
76204;SDS011;64986;55.672;37.628;2022-11-20T11:52:18;7.35;;;3.60;;
76204;SDS011;64986;55.672;37.628;2022-11-20T11:54:55;10.05;;;5.25;;
76204;SDS011;64986;55.672;37.628;2022-11-20T11:57:39;9.88;;;5.80;;
76204;SDS011;64986;55.672;37.628;2022-11-20T12:00:17;7.13;;;3.45;;
76204;SDS011;64986;55.672;37.628;2022-11-20T12:12:55;9.00;;;4.65;;
76204;SDS011;64986;55.672;37.628;2022-11-20T12:15:30;10.63;;;6.07;;
76204;SDS011;64986;55.672;37.628;2022-11-20T12:17:58;6.63;;;3.92;;
76204;SDS011;64986;55.672;37.628;2022-11-20T12:20:26;7.22;;;3.25;;
76204;SDS011;64986;55.672;37.628;2022-11-20T12:25:38;5.57;;;3.28;;
76204;SDS011;64986;55.672;37.628;2022-11-20T12:30:47;6.40;;;3.88;;
76204;SDS011;64986;55.672;37.628;2022-11-20T12:33:34;7.85;;;4.40;;
76204;SDS011;64986;55.672;37.628;2022-11-20T12:36:06;5.55;;;3.63;;
76204;SDS011;64986;55.672;37.628;2022-11-20T12:53:32;6.35;;;4.47;;
76204;SDS011;64986;55.672;37.628;2022-11-20T12:56:20;8.80;;;4.30;;
76204;SDS011;64986;55.672;37.628;2022-11-20T13:01:40;7.47;;;4.38;;
76204;SDS011;64986;55.672;37.628;2022-11-20T13:07:07;7.03;;;3.85;;
76204;SDS011;64986;55.672;37.628;2022-11-20T13:09:39;9.65;;;5.65;;
76204;SDS011;64986;55.672;37.628;2022-11-20T13:20:24;9.00;;;4.37;;
76204;SDS011;64986;55.672;37.628;2022-11-20T13:22:53;4.15;;;2.72;;
76204;SDS011;64986;55.672;37.628;2022-11-20T13:25:25;6.03;;;4.32;;
76204;SDS011;64986;55.672;37.628;2022-11-20T13:27:51;11.07;;;4.88;;
76204;SDS011;64986;55.672;37.628;2022-11-20T13:30:19;5.53;;;3.55;;
76204;SDS011;64986;55.672;37.628;2022-11-20T13:33:06;5.70;;;3.20;;
76204;SDS011;64986;55.672;37.628;2022-11-20T13:35:35;8.88;;;3.60;;
76204;SDS011;64986;55.672;37.628;2022-11-20T13:38:14;7.43;;;4.40;;
76204;SDS011;64986;55.672;37.628;2022-11-20T13:43:33;6.38;;;3.35;;
76204;SDS011;64986;55.672;37.628;2022-11-20T13:46:04;7.70;;;4.20;;
76204;SDS011;64986;55.672;37.628;2022-11-20T13:48:32;8.43;;;4.38;;
76204;SDS011;64986;55.672;37.628;2022-11-20T14:00:23;6.18;;;3.22;;
76204;SDS011;64986;55.672;37.628;2022-11-20T14:05:31;4.88;;;3.13;;
76204;SDS011;64986;55.672;37.628;2022-11-20T14:08:00;5.00;;;3.45;;
76204;SDS011;64986;55.672;37.628;2022-11-20T14:10:29;4.43;;;3.08;;
76204;SDS011;64986;55.672;37.628;2022-11-20T14:12:55;6.30;;;3.33;;
76204;SDS011;64986;55.672;37.628;2022-11-20T14:15:33;6.53;;;2.85;;
76204;SDS011;64986;55.672;37.628;2022-11-20T14:18:00;4.95;;;3.03;;
76204;SDS011;64986;55.672;37.628;2022-11-20T14:20:37;3.53;;;2.33;;
76204;SDS011;64986;55.672;37.628;2022-11-20T14:23:07;4.28;;;2.88;;
76204;SDS011;64986;55.672;37.628;2022-11-20T14:25:35;4.95;;;2.40;;
76204;SDS011;64986;55.672;37.628;2022-11-20T14:28:02;5.30;;;3.28;;
76204;SDS011;64986;55.672;37.628;2022-11-20T14:30:45;4.38;;;3.30;;
76204;SDS011;64986;55.672;37.628;2022-11-20T14:33:13;5.40;;;3.33;;
76204;SDS011;64986;55.672;37.628;2022-11-20T14:35:47;4.35;;;2.88;;
76204;SDS011;64986;55.672;37.628;2022-11-20T14:38:16;3.40;;;2.03;;
76204;SDS011;64986;55.672;37.628;2022-11-20T14:40:43;7.25;;;3.42;;
76204;SDS011;64986;55.672;37.628;2022-11-20T14:49:00;5.00;;;3.15;;
76204;SDS011;64986;55.672;37.628;2022-11-20T14:54:09;3.30;;;2.22;;
76204;SDS011;64986;55.672;37.628;2022-11-20T14:56:41;4.90;;;2.83;;
76204;SDS011;64986;55.672;37.628;2022-11-20T14:59:22;3.67;;;2.58;;
76204;SDS011;64986;55.672;37.628;2022-11-20T15:01:57;5.18;;;3.85;;
76204;SDS011;64986;55.672;37.628;2022-11-20T15:04:50;3.97;;;2.58;;
76204;SDS011;64986;55.672;37.628;2022-11-20T15:07:26;4.22;;;2.80;;
76204;SDS011;64986;55.672;37.628;2022-11-20T15:10:00;4.60;;;2.92;;
76204;SDS011;64986;55.672;37.628;2022-11-20T15:12:34;7.20;;;4.47;;
76204;SDS011;64986;55.672;37.628;2022-11-20T15:15:04;6.72;;;3.03;;
76204;SDS011;64986;55.672;37.628;2022-11-20T15:17:30;4.40;;;2.70;;
76204;SDS011;64986;55.672;37.628;2022-11-20T15:19:57;4.82;;;2.97;;
76204;SDS011;64986;55.672;37.628;2022-11-20T15:22:24;8.25;;;3.92;;
76204;SDS011;64986;55.672;37.628;2022-11-20T15:24:50;5.20;;;3.05;;
76204;SDS011;64986;55.672;37.628;2022-11-20T15:27:17;6.90;;;3.10;;
76204;SDS011;64986;55.672;37.628;2022-11-20T15:29:42;5.10;;;3.47;;
76204;SDS011;64986;55.672;37.628;2022-11-20T15:32:08;3.50;;;2.38;;
76204;SDS011;64986;55.672;37.628;2022-11-20T15:34:34;3.92;;;2.63;;
76204;SDS011;64986;55.672;37.628;2022-11-20T15:37:01;3.63;;;2.03;;
76204;SDS011;64986;55.672;37.628;2022-11-20T15:39:26;3.30;;;2.15;;
76204;SDS011;64986;55.672;37.628;2022-11-20T15:41:52;3.92;;;2.50;;
76204;SDS011;64986;55.672;37.628;2022-11-20T15:44:17;2.70;;;2.10;;
76204;SDS011;64986;55.672;37.628;2022-11-20T15:46:43;4.35;;;2.20;;
76204;SDS011;64986;55.672;37.628;2022-11-20T15:49:14;5.05;;;2.63;;
76204;SDS011;64986;55.672;37.628;2022-11-20T15:51:41;4.85;;;2.75;;
76204;SDS011;64986;55.672;37.628;2022-11-20T15:54:15;3.35;;;2.40;;
76204;SDS011;64986;55.672;37.628;2022-11-20T15:56:48;4.55;;;2.45;;
76204;SDS011;64986;55.672;37.628;2022-11-20T15:59:14;5.95;;;3.05;;
76204;SDS011;64986;55.672;37.628;2022-11-20T16:01:40;4.10;;;2.78;;
76204;SDS011;64986;55.672;37.628;2022-11-20T16:04:10;4.47;;;2.58;;
76204;SDS011;64986;55.672;37.628;2022-11-20T16:06:37;4.15;;;2.50;;
76204;SDS011;64986;55.672;37.628;2022-11-20T16:09:04;2.53;;;1.80;;
76204;SDS011;64986;55.672;37.628;2022-11-20T16:11:29;4.55;;;2.88;;
76204;SDS011;64986;55.672;37.628;2022-11-20T16:13:55;6.32;;;3.83;;
76204;SDS011;64986;55.672;37.628;2022-11-20T16:16:39;5.60;;;3.00;;
76204;SDS011;64986;55.672;37.628;2022-11-20T16:19:09;2.70;;;1.88;;
76204;SDS011;64986;55.672;37.628;2022-11-20T16:21:35;6.72;;;4.18;;
76204;SDS011;64986;55.672;37.628;2022-11-20T16:24:05;5.85;;;3.40;;
76204;SDS011;64986;55.672;37.628;2022-11-20T16:26:35;7.88;;;4.13;;
76204;SDS011;64986;55.672;37.628;2022-11-20T16:29:02;11.65;;;4.72;;
76204;SDS011;64986;55.672;37.628;2022-11-20T16:31:29;7.40;;;3.58;;
76204;SDS011;64986;55.672;37.628;2022-11-20T16:33:56;7.35;;;3.72;;
76204;SDS011;64986;55.672;37.628;2022-11-20T16:36:23;7.20;;;3.30;;
76204;SDS011;64986;55.672;37.628;2022-11-20T16:38:54;5.13;;;2.85;;
76204;SDS011;64986;55.672;37.628;2022-11-20T16:41:21;4.43;;;2.67;;
76204;SDS011;64986;55.672;37.628;2022-11-20T16:43:47;6.57;;;2.42;;
76204;SDS011;64986;55.672;37.628;2022-11-20T16:46:15;5.05;;;2.95;;
76204;SDS011;64986;55.672;37.628;2022-11-20T16:48:42;5.38;;;2.80;;
76204;SDS011;64986;55.672;37.628;2022-11-20T16:51:11;5.20;;;3.17;;